首页
METAR-TAF:

METAR-TAF

机场 :

Kenosha, 威斯康辛州, 美国

纬度: 42-35-42N, 经度: 087-56-17W, 海拔: 226米

当前天气观测

该预报发布于1小时和6分钟前的19:53 UTC
风速12节,风向西转西北
温度 23°C
湿度 50%
气压 1016 hPa
能見度: 16.1公里
散云层高于5500英尺

METAR: KENW 231953Z 30012KT 10SM SCT055 23/12 A2999 RMK AO2 PK WND 27026/1923 SLP152 T02280122

时间: 15:59 (20:59 UTC)

预报

该预报发布于33分钟前的20:26 UTC
预报有效从23日的 20点(UTC)到 24日的 18点(UTC)
风速14节,风向西转西北,有时为24节阵风
能見度: 10公里
散云层高于5000英尺
从 23日的 2300点(UTC)
风速8节,风向西
能見度: 10公里
少量云层高于5000英尺
从 24日的 0500点(UTC)
风速4节,风向多变
能見度: 10公里
天空无云
从 24日的 1500点(UTC)
风速11节,风向西南
能見度: 10公里
散云层高于5000英尺
散云层高于20000英尺

TAF: KENW 232026Z 2320/2418 29014G24KT P6SM SCT050 FM232300 27008KT P6SM FEW050 FM240500 VRB04KT P6SM SKC FM241500 23011KT P6SM SCT050 SCT200

超过4000个机场的气象观测和天气预报(METAR&TAF报告)。

可查询的气象台以黄色和红色小点在地图上表示。

将鼠标移到小点上方,可查看气象台名称。

然后点击查看天气观测和预报。

如需切换地图:点击带黑十字的绿色按钮放大地图;点击带横线的绿色按钮缩小地图;或者点击绿色箭头查看邻近地区的地图。


METAR-TAF: